sensor_id;sensor_type;location;lat;lon;timestamp;P1;durP1;ratioP1;P2;durP2;ratioP2
15096;SDS011;7649;52.084;7.478;2022-08-11T00:01:53;3.35;;;2.65;;
15096;SDS011;7649;52.084;7.478;2022-08-11T00:04:22;2.85;;;2.45;;
15096;SDS011;7649;52.084;7.478;2022-08-11T00:06:51;2.50;;;2.30;;
15096;SDS011;7649;52.084;7.478;2022-08-11T00:09:30;3.42;;;2.33;;
15096;SDS011;7649;52.084;7.478;2022-08-11T00:12:05;4.25;;;2.55;;
15096;SDS011;7649;52.084;7.478;2022-08-11T00:14:41;3.10;;;2.60;;
15096;SDS011;7649;52.084;7.478;2022-08-11T00:17:11;2.80;;;2.58;;
15096;SDS011;7649;52.084;7.478;2022-08-11T00:19:40;2.78;;;2.40;;
15096;SDS011;7649;52.084;7.478;2022-08-11T00:22:31;3.72;;;2.60;;
15096;SDS011;7649;52.084;7.478;2022-08-11T00:25:00;2.65;;;2.38;;
15096;SDS011;7649;52.084;7.478;2022-08-11T00:27:36;2.95;;;2.55;;
15096;SDS011;7649;52.084;7.478;2022-08-11T00:30:08;2.70;;;2.50;;
15096;SDS011;7649;52.084;7.478;2022-08-11T00:32:40;2.80;;;2.58;;
15096;SDS011;7649;52.084;7.478;2022-08-11T00:35:10;4.13;;;2.60;;
15096;SDS011;7649;52.084;7.478;2022-08-11T00:37:59;6.00;;;2.42;;
15096;SDS011;7649;52.084;7.478;2022-08-11T00:40:32;4.47;;;2.58;;
15096;SDS011;7649;52.084;7.478;2022-08-11T00:43:08;2.47;;;2.28;;
15096;SDS011;7649;52.084;7.478;2022-08-11T00:45:50;2.55;;;2.30;;
15096;SDS011;7649;52.084;7.478;2022-08-11T00:48:24;2.88;;;2.42;;
15096;SDS011;7649;52.084;7.478;2022-08-11T00:50:59;3.28;;;2.42;;
15096;SDS011;7649;52.084;7.478;2022-08-11T00:53:37;3.40;;;2.63;;
15096;SDS011;7649;52.084;7.478;2022-08-11T00:56:14;3.78;;;2.60;;
15096;SDS011;7649;52.084;7.478;2022-08-11T00:58:51;2.60;;;2.40;;
15096;SDS011;7649;52.084;7.478;2022-08-11T01:01:29;2.90;;;2.55;;
15096;SDS011;7649;52.084;7.478;2022-08-11T01:04:09;4.22;;;2.50;;
15096;SDS011;7649;52.084;7.478;2022-08-11T01:06:45;4.13;;;2.50;;
15096;SDS011;7649;52.084;7.478;2022-08-11T01:09:24;2.97;;;2.60;;
15096;SDS011;7649;52.084;7.478;2022-08-11T01:17:54;4.22;;;2.53;;
15096;SDS011;7649;52.084;7.478;2022-08-11T01:26:19;4.90;;;2.70;;
15096;SDS011;7649;52.084;7.478;2022-08-11T01:28:59;3.58;;;2.60;;
15096;SDS011;7649;52.084;7.478;2022-08-11T01:31:39;4.93;;;2.85;;
15096;SDS011;7649;52.084;7.478;2022-08-11T01:37:09;2.42;;;2.33;;
15096;SDS011;7649;52.084;7.478;2022-08-11T01:39:48;3.08;;;2.50;;
15096;SDS011;7649;52.084;7.478;2022-08-11T01:42:37;3.28;;;2.60;;
15096;SDS011;7649;52.084;7.478;2022-08-11T01:45:29;3.20;;;2.50;;
15096;SDS011;7649;52.084;7.478;2022-08-11T01:48:04;2.85;;;2.58;;
15096;SDS011;7649;52.084;7.478;2022-08-11T01:50:42;6.22;;;2.50;;
15096;SDS011;7649;52.084;7.478;2022-08-11T01:53:20;6.28;;;3.03;;
15096;SDS011;7649;52.084;7.478;2022-08-11T01:55:52;3.33;;;2.78;;
15096;SDS011;7649;52.084;7.478;2022-08-11T01:58:25;2.75;;;2.55;;
15096;SDS011;7649;52.084;7.478;2022-08-11T02:01:10;4.43;;;2.80;;
15096;SDS011;7649;52.084;7.478;2022-08-11T02:03:42;3.25;;;2.33;;
15096;SDS011;7649;52.084;7.478;2022-08-11T02:06:14;3.50;;;2.65;;
15096;SDS011;7649;52.084;7.478;2022-08-11T02:09:06;2.90;;;2.70;;
15096;SDS011;7649;52.084;7.478;2022-08-11T02:11:37;2.80;;;2.60;;
15096;SDS011;7649;52.084;7.478;2022-08-11T02:14:15;5.05;;;2.60;;
15096;SDS011;7649;52.084;7.478;2022-08-11T02:16:55;5.07;;;2.90;;
15096;SDS011;7649;52.084;7.478;2022-08-11T02:19:30;4.10;;;3.00;;
15096;SDS011;7649;52.084;7.478;2022-08-11T02:22:25;5.38;;;2.97;;
15096;SDS011;7649;52.084;7.478;2022-08-11T02:25:19;5.35;;;3.20;;
15096;SDS011;7649;52.084;7.478;2022-08-11T02:27:50;3.10;;;2.80;;
15096;SDS011;7649;52.084;7.478;2022-08-11T02:30:21;2.90;;;2.70;;
15096;SDS011;7649;52.084;7.478;2022-08-11T02:32:54;4.95;;;2.90;;
15096;SDS011;7649;52.084;7.478;2022-08-11T02:36:02;3.28;;;2.97;;
15096;SDS011;7649;52.084;7.478;2022-08-11T02:38:36;3.17;;;2.90;;
15096;SDS011;7649;52.084;7.478;2022-08-11T02:41:12;3.08;;;2.88;;
15096;SDS011;7649;52.084;7.478;2022-08-11T02:44:09;6.07;;;3.40;;
15096;SDS011;7649;52.084;7.478;2022-08-11T02:46:48;3.90;;;3.30;;
15096;SDS011;7649;52.084;7.478;2022-08-11T02:52:34;4.03;;;3.05;;
15096;SDS011;7649;52.084;7.478;2022-08-11T02:55:09;3.85;;;3.40;;
15096;SDS011;7649;52.084;7.478;2022-08-11T02:58:02;3.60;;;3.40;;
15096;SDS011;7649;52.084;7.478;2022-08-11T03:00:42;5.80;;;3.67;;
15096;SDS011;7649;52.084;7.478;2022-08-11T03:03:14;3.70;;;3.15;;
15096;SDS011;7649;52.084;7.478;2022-08-11T03:05:47;3.55;;;3.10;;
15096;SDS011;7649;52.084;7.478;2022-08-11T03:08:23;3.70;;;3.40;;
15096;SDS011;7649;52.084;7.478;2022-08-11T03:10:54;3.88;;;3.58;;
15096;SDS011;7649;52.084;7.478;2022-08-11T03:13:48;4.85;;;4.00;;
15096;SDS011;7649;52.084;7.478;2022-08-11T03:16:40;3.53;;;3.30;;
15096;SDS011;7649;52.084;7.478;2022-08-11T03:19:17;3.03;;;2.80;;
15096;SDS011;7649;52.084;7.478;2022-08-11T03:21:47;4.57;;;3.38;;
15096;SDS011;7649;52.084;7.478;2022-08-11T03:24:30;5.35;;;2.90;;
15096;SDS011;7649;52.084;7.478;2022-08-11T03:27:02;3.28;;;2.97;;
15096;SDS011;7649;52.084;7.478;2022-08-11T03:29:34;3.55;;;3.20;;
15096;SDS011;7649;52.084;7.478;2022-08-11T03:32:07;4.43;;;3.15;;
15096;SDS011;7649;52.084;7.478;2022-08-11T03:34:37;7.50;;;3.90;;
15096;SDS011;7649;52.084;7.478;2022-08-11T03:37:10;4.22;;;3.25;;
15096;SDS011;7649;52.084;7.478;2022-08-11T03:40:03;3.88;;;3.13;;
15096;SDS011;7649;52.084;7.478;2022-08-11T03:42:42;4.70;;;3.45;;
15096;SDS011;7649;52.084;7.478;2022-08-11T03:45:21;4.18;;;3.35;;
15096;SDS011;7649;52.084;7.478;2022-08-11T03:50:45;3.50;;;3.20;;
15096;SDS011;7649;52.084;7.478;2022-08-11T03:53:22;3.30;;;2.97;;
15096;SDS011;7649;52.084;7.478;2022-08-11T03:58:58;5.22;;;3.03;;
15096;SDS011;7649;52.084;7.478;2022-08-11T04:01:40;4.80;;;3.88;;
15096;SDS011;7649;52.084;7.478;2022-08-11T04:04:29;3.78;;;3.42;;
15096;SDS011;7649;52.084;7.478;2022-08-11T04:10:08;4.72;;;3.40;;
15096;SDS011;7649;52.084;7.478;2022-08-11T04:12:53;7.05;;;3.85;;
15096;SDS011;7649;52.084;7.478;2022-08-11T04:15:36;4.50;;;3.95;;
15096;SDS011;7649;52.084;7.478;2022-08-11T04:24:23;4.68;;;3.53;;
15096;SDS011;7649;52.084;7.478;2022-08-11T04:30:02;5.60;;;4.63;;
15096;SDS011;7649;52.084;7.478;2022-08-11T04:32:48;6.53;;;4.03;;
15096;SDS011;7649;52.084;7.478;2022-08-11T04:35:28;5.32;;;4.00;;
15096;SDS011;7649;52.084;7.478;2022-08-11T04:49:23;4.60;;;4.20;;
15096;SDS011;7649;52.084;7.478;2022-08-11T04:52:15;4.82;;;4.40;;
15096;SDS011;7649;52.084;7.478;2022-08-11T04:58:10;5.60;;;4.07;;
15096;SDS011;7649;52.084;7.478;2022-08-11T05:01:04;6.00;;;4.28;;
15096;SDS011;7649;52.084;7.478;2022-08-11T05:07:10;5.85;;;4.00;;
15096;SDS011;7649;52.084;7.478;2022-08-11T05:09:55;4.78;;;4.10;;
15096;SDS011;7649;52.084;7.478;2022-08-11T05:12:30;4.97;;;3.70;;
15096;SDS011;7649;52.084;7.478;2022-08-11T05:15:03;7.93;;;4.10;;
15096;SDS011;7649;52.084;7.478;2022-08-11T05:17:54;7.65;;;4.70;;
15096;SDS011;7649;52.084;7.478;2022-08-11T05:20:44;4.43;;;4.03;;
15096;SDS011;7649;52.084;7.478;2022-08-11T05:23:32;5.78;;;4.20;;
15096;SDS011;7649;52.084;7.478;2022-08-11T05:26:19;4.20;;;3.80;;
15096;SDS011;7649;52.084;7.478;2022-08-11T05:29:26;4.20;;;3.88;;
15096;SDS011;7649;52.084;7.478;2022-08-11T05:32:14;4.45;;;3.65;;
15096;SDS011;7649;52.084;7.478;2022-08-11T05:35:03;7.05;;;4.10;;
15096;SDS011;7649;52.084;7.478;2022-08-11T05:37:33;4.05;;;3.50;;
15096;SDS011;7649;52.084;7.478;2022-08-11T05:40:08;4.35;;;3.55;;
15096;SDS011;7649;52.084;7.478;2022-08-11T05:42:56;5.50;;;3.47;;
15096;SDS011;7649;52.084;7.478;2022-08-11T05:45:43;6.32;;;3.90;;
15096;SDS011;7649;52.084;7.478;2022-08-11T05:48:34;3.78;;;3.45;;
15096;SDS011;7649;52.084;7.478;2022-08-11T05:51:20;3.78;;;3.47;;
15096;SDS011;7649;52.084;7.478;2022-08-11T05:54:20;7.22;;;4.20;;
15096;SDS011;7649;52.084;7.478;2022-08-11T05:57:08;6.38;;;3.90;;
15096;SDS011;7649;52.084;7.478;2022-08-11T05:59:58;3.67;;;3.20;;
15096;SDS011;7649;52.084;7.478;2022-08-11T06:02:26;4.90;;;3.60;;
15096;SDS011;7649;52.084;7.478;2022-08-11T06:04:56;5.75;;;3.97;;
15096;SDS011;7649;52.084;7.478;2022-08-11T06:07:26;16.38;;;3.80;;
15096;SDS011;7649;52.084;7.478;2022-08-11T06:10:12;3.25;;;2.90;;
15096;SDS011;7649;52.084;7.478;2022-08-11T06:12:42;6.40;;;3.35;;
15096;SDS011;7649;52.084;7.478;2022-08-11T06:15:12;3.33;;;3.03;;
15096;SDS011;7649;52.084;7.478;2022-08-11T06:17:42;6.00;;;4.05;;
15096;SDS011;7649;52.084;7.478;2022-08-11T06:20:12;5.68;;;3.58;;
15096;SDS011;7649;52.084;7.478;2022-08-11T06:22:42;5.78;;;3.10;;
15096;SDS011;7649;52.084;7.478;2022-08-11T06:25:18;4.68;;;3.20;;
15096;SDS011;7649;52.084;7.478;2022-08-11T06:27:47;7.05;;;3.03;;
15096;SDS011;7649;52.084;7.478;2022-08-11T06:30:27;7.10;;;3.20;;
15096;SDS011;7649;52.084;7.478;2022-08-11T06:33:00;4.25;;;3.50;;
15096;SDS011;7649;52.084;7.478;2022-08-11T06:35:32;5.82;;;3.00;;
15096;SDS011;7649;52.084;7.478;2022-08-11T06:38:04;4.28;;;3.17;;
15096;SDS011;7649;52.084;7.478;2022-08-11T06:40:35;4.10;;;3.08;;
15096;SDS011;7649;52.084;7.478;2022-08-11T06:43:09;3.28;;;2.97;;
15096;SDS011;7649;52.084;7.478;2022-08-11T06:45:39;4.72;;;3.22;;
15096;SDS011;7649;52.084;7.478;2022-08-11T06:48:13;4.13;;;3.15;;
15096;SDS011;7649;52.084;7.478;2022-08-11T06:50:46;3.95;;;3.20;;
15096;SDS011;7649;52.084;7.478;2022-08-11T06:53:33;4.60;;;3.00;;
15096;SDS011;7649;52.084;7.478;2022-08-11T06:56:02;6.55;;;3.28;;
15096;SDS011;7649;52.084;7.478;2022-08-11T06:58:49;3.80;;;3.10;;
15096;SDS011;7649;52.084;7.478;2022-08-11T07:01:40;6.03;;;3.17;;
15096;SDS011;7649;52.084;7.478;2022-08-11T07:04:15;6.25;;;3.30;;
15096;SDS011;7649;52.084;7.478;2022-08-11T07:06:49;4.07;;;2.97;;
15096;SDS011;7649;52.084;7.478;2022-08-11T07:09:47;4.00;;;3.10;;
15096;SDS011;7649;52.084;7.478;2022-08-11T07:12:38;6.38;;;2.70;;
15096;SDS011;7649;52.084;7.478;2022-08-11T07:15:30;5.45;;;2.67;;
15096;SDS011;7649;52.084;7.478;2022-08-11T07:18:31;6.10;;;3.00;;
15096;SDS011;7649;52.084;7.478;2022-08-11T07:21:20;3.20;;;2.50;;
15096;SDS011;7649;52.084;7.478;2022-08-11T07:24:26;8.57;;;2.40;;
15096;SDS011;7649;52.084;7.478;2022-08-11T07:27:29;5.78;;;2.30;;
15096;SDS011;7649;52.084;7.478;2022-08-11T07:30:15;2.40;;;2.20;;
15096;SDS011;7649;52.084;7.478;2022-08-11T07:32:46;3.05;;;2.40;;
15096;SDS011;7649;52.084;7.478;2022-08-11T07:35:17;5.13;;;4.30;;
15096;SDS011;7649;52.084;7.478;2022-08-11T07:37:47;2.70;;;1.95;;
15096;SDS011;7649;52.084;7.478;2022-08-11T07:40:27;2.42;;;1.70;;
15096;SDS011;7649;52.084;7.478;2022-08-11T07:42:56;3.65;;;2.42;;
15096;SDS011;7649;52.084;7.478;2022-08-11T07:45:26;2.35;;;2.15;;
15096;SDS011;7649;52.084;7.478;2022-08-11T07:48:14;2.28;;;1.75;;
15096;SDS011;7649;52.084;7.478;2022-08-11T07:51:00;3.78;;;2.05;;
15096;SDS011;7649;52.084;7.478;2022-08-11T07:53:46;3.20;;;1.70;;
15096;SDS011;7649;52.084;7.478;2022-08-11T07:56:30;5.60;;;2.08;;
15096;SDS011;7649;52.084;7.478;2022-08-11T07:59:19;4.15;;;2.10;;
15096;SDS011;7649;52.084;7.478;2022-08-11T08:02:26;2.72;;;1.80;;
15096;SDS011;7649;52.084;7.478;2022-08-11T08:05:13;3.20;;;1.85;;
15096;SDS011;7649;52.084;7.478;2022-08-11T08:08:00;4.22;;;2.10;;
15096;SDS011;7649;52.084;7.478;2022-08-11T08:10:46;4.00;;;2.10;;
15096;SDS011;7649;52.084;7.478;2022-08-11T08:13:32;3.55;;;2.00;;
15096;SDS011;7649;52.084;7.478;2022-08-11T08:16:20;5.45;;;2.28;;
15096;SDS011;7649;52.084;7.478;2022-08-11T08:19:07;7.30;;;2.40;;
15096;SDS011;7649;52.084;7.478;2022-08-11T08:21:40;2.53;;;2.08;;
15096;SDS011;7649;52.084;7.478;2022-08-11T08:24:10;6.38;;;2.38;;
15096;SDS011;7649;52.084;7.478;2022-08-11T08:26:39;3.35;;;2.40;;
15096;SDS011;7649;52.084;7.478;2022-08-11T08:29:25;2.28;;;2.00;;
15096;SDS011;7649;52.084;7.478;2022-08-11T08:32:12;3.08;;;2.00;;
15096;SDS011;7649;52.084;7.478;2022-08-11T08:34:42;3.47;;;2.20;;
15096;SDS011;7649;52.084;7.478;2022-08-11T08:37:12;2.05;;;1.90;;
15096;SDS011;7649;52.084;7.478;2022-08-11T08:40:01;3.10;;;2.20;;
15096;SDS011;7649;52.084;7.478;2022-08-11T08:42:30;4.78;;;2.30;;
15096;SDS011;7649;52.084;7.478;2022-08-11T08:45:01;2.33;;;2.13;;
15096;SDS011;7649;52.084;7.478;2022-08-11T08:47:30;2.58;;;2.28;;
15096;SDS011;7649;52.084;7.478;2022-08-11T08:50:09;3.08;;;2.20;;
15096;SDS011;7649;52.084;7.478;2022-08-11T08:52:46;4.22;;;2.33;;
15096;SDS011;7649;52.084;7.478;2022-08-11T08:55:16;7.20;;;2.47;;
15096;SDS011;7649;52.084;7.478;2022-08-11T08:57:45;3.55;;;1.98;;
15096;SDS011;7649;52.084;7.478;2022-08-11T09:00:15;2.42;;;2.22;;
15096;SDS011;7649;52.084;7.478;2022-08-11T09:02:48;4.05;;;2.53;;
15096;SDS011;7649;52.084;7.478;2022-08-11T09:05:17;2.70;;;2.35;;
15096;SDS011;7649;52.084;7.478;2022-08-11T09:07:49;2.75;;;2.40;;
15096;SDS011;7649;52.084;7.478;2022-08-11T09:10:18;5.05;;;2.25;;
15096;SDS011;7649;52.084;7.478;2022-08-11T09:12:47;3.95;;;2.40;;
15096;SDS011;7649;52.084;7.478;2022-08-11T09:15:17;3.38;;;2.30;;
15096;SDS011;7649;52.084;7.478;2022-08-11T09:17:46;3.35;;;2.30;;
15096;SDS011;7649;52.084;7.478;2022-08-11T09:20:16;8.70;;;2.75;;
15096;SDS011;7649;52.084;7.478;2022-08-11T09:22:45;2.75;;;2.45;;
15096;SDS011;7649;52.084;7.478;2022-08-11T09:25:54;7.70;;;2.50;;
15096;SDS011;7649;52.084;7.478;2022-08-11T09:28:36;3.28;;;2.58;;
15096;SDS011;7649;52.084;7.478;2022-08-11T09:31:05;4.75;;;2.53;;
15096;SDS011;7649;52.084;7.478;2022-08-11T09:33:36;4.28;;;2.47;;
15096;SDS011;7649;52.084;7.478;2022-08-11T09:36:08;2.80;;;2.40;;
15096;SDS011;7649;52.084;7.478;2022-08-11T09:38:54;3.67;;;2.72;;
15096;SDS011;7649;52.084;7.478;2022-08-11T09:41:42;3.10;;;2.55;;
15096;SDS011;7649;52.084;7.478;2022-08-11T09:44:27;2.78;;;2.58;;
15096;SDS011;7649;52.084;7.478;2022-08-11T09:47:18;6.35;;;2.75;;
15096;SDS011;7649;52.084;7.478;2022-08-11T09:49:49;2.50;;;2.35;;
15096;SDS011;7649;52.084;7.478;2022-08-11T09:52:18;4.03;;;2.38;;
15096;SDS011;7649;52.084;7.478;2022-08-11T09:54:47;2.72;;;2.53;;
15096;SDS011;7649;52.084;7.478;2022-08-11T09:57:20;4.95;;;2.58;;
15096;SDS011;7649;52.084;7.478;2022-08-11T10:00:08;4.65;;;2.67;;
15096;SDS011;7649;52.084;7.478;2022-08-11T10:02:39;7.45;;;2.90;;
15096;SDS011;7649;52.084;7.478;2022-08-11T10:05:09;3.05;;;2.40;;
15096;SDS011;7649;52.084;7.478;2022-08-11T10:07:56;2.95;;;2.45;;
15096;SDS011;7649;52.084;7.478;2022-08-11T10:10:26;8.13;;;2.75;;
15096;SDS011;7649;52.084;7.478;2022-08-11T10:12:57;2.63;;;2.42;;
15096;SDS011;7649;52.084;7.478;2022-08-11T10:15:26;8.45;;;2.50;;
15096;SDS011;7649;52.084;7.478;2022-08-11T10:18:01;3.75;;;2.63;;
15096;SDS011;7649;52.084;7.478;2022-08-11T10:20:49;6.65;;;2.70;;
15096;SDS011;7649;52.084;7.478;2022-08-11T10:23:19;3.47;;;2.40;;
15096;SDS011;7649;52.084;7.478;2022-08-11T10:26:26;4.05;;;2.22;;
15096;SDS011;7649;52.084;7.478;2022-08-11T10:29:14;6.97;;;2.78;;
15096;SDS011;7649;52.084;7.478;2022-08-11T10:32:09;2.58;;;2.38;;
15096;SDS011;7649;52.084;7.478;2022-08-11T10:34:57;2.78;;;2.45;;
15096;SDS011;7649;52.084;7.478;2022-08-11T10:37:26;3.40;;;2.33;;
15096;SDS011;7649;52.084;7.478;2022-08-11T10:40:22;3.17;;;2.30;;
15096;SDS011;7649;52.084;7.478;2022-08-11T10:42:51;4.10;;;2.60;;
15096;SDS011;7649;52.084;7.478;2022-08-11T10:45:34;2.95;;;2.42;;
15096;SDS011;7649;52.084;7.478;2022-08-11T10:48:20;3.42;;;2.45;;
15096;SDS011;7649;52.084;7.478;2022-08-11T10:50:49;5.32;;;2.38;;
15096;SDS011;7649;52.084;7.478;2022-08-11T10:53:37;5.38;;;2.60;;
15096;SDS011;7649;52.084;7.478;2022-08-11T10:56:23;2.50;;;2.22;;
15096;SDS011;7649;52.084;7.478;2022-08-11T10:59:12;4.82;;;2.88;;
15096;SDS011;7649;52.084;7.478;2022-08-11T11:01:43;4.82;;;2.28;;
15096;SDS011;7649;52.084;7.478;2022-08-11T11:04:12;3.95;;;2.55;;
15096;SDS011;7649;52.084;7.478;2022-08-11T11:06:49;4.00;;;2.35;;
15096;SDS011;7649;52.084;7.478;2022-08-11T11:09:19;2.72;;;2.53;;
15096;SDS011;7649;52.084;7.478;2022-08-11T11:11:52;4.75;;;2.50;;
15096;SDS011;7649;52.084;7.478;2022-08-11T11:14:39;2.90;;;2.55;;
15096;SDS011;7649;52.084;7.478;2022-08-11T11:17:28;4.35;;;2.47;;
15096;SDS011;7649;52.084;7.478;2022-08-11T11:20:16;3.03;;;2.22;;
15096;SDS011;7649;52.084;7.478;2022-08-11T11:23:05;4.80;;;2.45;;
15096;SDS011;7649;52.084;7.478;2022-08-11T11:25:37;3.17;;;2.42;;
15096;SDS011;7649;52.084;7.478;2022-08-11T11:28:13;4.85;;;2.83;;
15096;SDS011;7649;52.084;7.478;2022-08-11T11:30:50;3.75;;;2.40;;
15096;SDS011;7649;52.084;7.478;2022-08-11T11:33:25;4.18;;;2.70;;
15096;SDS011;7649;52.084;7.478;2022-08-11T11:36:00;4.97;;;2.20;;
15096;SDS011;7649;52.084;7.478;2022-08-11T11:38:34;2.47;;;2.28;;
15096;SDS011;7649;52.084;7.478;2022-08-11T11:41:02;5.25;;;2.80;;
15096;SDS011;7649;52.084;7.478;2022-08-11T11:43:49;2.35;;;2.10;;
15096;SDS011;7649;52.084;7.478;2022-08-11T11:46:17;4.10;;;2.30;;
15096;SDS011;7649;52.084;7.478;2022-08-11T11:48:50;3.80;;;2.55;;
15096;SDS011;7649;52.084;7.478;2022-08-11T11:51:20;6.18;;;2.83;;
15096;SDS011;7649;52.084;7.478;2022-08-11T11:53:49;2.35;;;2.15;;
15096;SDS011;7649;52.084;7.478;2022-08-11T11:56:18;3.70;;;2.30;;
15096;SDS011;7649;52.084;7.478;2022-08-11T11:58:49;2.95;;;2.40;;
15096;SDS011;7649;52.084;7.478;2022-08-11T12:01:39;4.55;;;2.40;;
15096;SDS011;7649;52.084;7.478;2022-08-11T12:04:17;2.70;;;2.22;;
15096;SDS011;7649;52.084;7.478;2022-08-11T12:06:47;5.65;;;2.33;;
15096;SDS011;7649;52.084;7.478;2022-08-11T12:09:17;2.70;;;2.40;;
15096;SDS011;7649;52.084;7.478;2022-08-11T12:11:49;5.30;;;2.72;;
15096;SDS011;7649;52.084;7.478;2022-08-11T12:14:35;3.55;;;2.33;;
15096;SDS011;7649;52.084;7.478;2022-08-11T12:17:04;3.28;;;2.45;;
15096;SDS011;7649;52.084;7.478;2022-08-11T12:19:33;3.25;;;2.15;;
15096;SDS011;7649;52.084;7.478;2022-08-11T12:22:02;5.57;;;2.40;;
15096;SDS011;7649;52.084;7.478;2022-08-11T12:24:49;2.50;;;2.30;;
15096;SDS011;7649;52.084;7.478;2022-08-11T12:27:35;3.60;;;2.20;;
15096;SDS011;7649;52.084;7.478;2022-08-11T12:30:06;3.03;;;2.30;;
15096;SDS011;7649;52.084;7.478;2022-08-11T12:32:35;4.25;;;2.47;;
15096;SDS011;7649;52.084;7.478;2022-08-11T12:35:06;7.30;;;3.00;;
15096;SDS011;7649;52.084;7.478;2022-08-11T12:37:36;5.50;;;2.65;;
15096;SDS011;7649;52.084;7.478;2022-08-11T12:40:08;3.05;;;2.22;;
15096;SDS011;7649;52.084;7.478;2022-08-11T12:43:16;3.88;;;2.10;;
15096;SDS011;7649;52.084;7.478;2022-08-11T12:46:22;2.30;;;2.10;;
15096;SDS011;7649;52.084;7.478;2022-08-11T12:48:54;2.35;;;2.20;;
15096;SDS011;7649;52.084;7.478;2022-08-11T12:51:44;5.40;;;2.30;;
15096;SDS011;7649;52.084;7.478;2022-08-11T12:54:52;2.55;;;2.33;;
15096;SDS011;7649;52.084;7.478;2022-08-11T12:57:29;2.55;;;2.30;;
15096;SDS011;7649;52.084;7.478;2022-08-11T13:00:17;2.50;;;2.30;;
15096;SDS011;7649;52.084;7.478;2022-08-11T13:03:04;4.72;;;2.47;;
15096;SDS011;7649;52.084;7.478;2022-08-11T13:05:52;5.38;;;2.70;;
15096;SDS011;7649;52.084;7.478;2022-08-11T13:08:23;3.00;;;2.30;;
15096;SDS011;7649;52.084;7.478;2022-08-11T13:10:52;6.07;;;2.80;;
15096;SDS011;7649;52.084;7.478;2022-08-11T13:13:39;4.78;;;2.40;;
15096;SDS011;7649;52.084;7.478;2022-08-11T13:16:22;3.95;;;2.10;;
15096;SDS011;7649;52.084;7.478;2022-08-11T13:18:51;3.45;;;2.30;;
15096;SDS011;7649;52.084;7.478;2022-08-11T13:21:20;2.55;;;2.35;;
15096;SDS011;7649;52.084;7.478;2022-08-11T13:23:51;8.85;;;2.40;;
15096;SDS011;7649;52.084;7.478;2022-08-11T13:26:27;2.47;;;2.28;;
15096;SDS011;7649;52.084;7.478;2022-08-11T13:29:19;3.40;;;2.03;;
15096;SDS011;7649;52.084;7.478;2022-08-11T13:31:48;4.40;;;2.42;;
15096;SDS011;7649;52.084;7.478;2022-08-11T13:34:17;3.75;;;2.25;;
15096;SDS011;7649;52.084;7.478;2022-08-11T13:36:47;2.88;;;1.85;;
15096;SDS011;7649;52.084;7.478;2022-08-11T13:39:18;2.58;;;2.10;;
15096;SDS011;7649;52.084;7.478;2022-08-11T13:41:50;3.03;;;2.03;;
15096;SDS011;7649;52.084;7.478;2022-08-11T13:44:18;3.50;;;2.10;;
15096;SDS011;7649;52.084;7.478;2022-08-11T13:46:51;2.03;;;1.90;;
15096;SDS011;7649;52.084;7.478;2022-08-11T13:49:20;2.30;;;2.10;;
15096;SDS011;7649;52.084;7.478;2022-08-11T13:51:49;2.67;;;1.95;;
15096;SDS011;7649;52.084;7.478;2022-08-11T13:54:20;2.60;;;2.05;;
15096;SDS011;7649;52.084;7.478;2022-08-11T13:56:52;2.35;;;2.13;;
15096;SDS011;7649;52.084;7.478;2022-08-11T13:59:21;3.33;;;2.08;;
15096;SDS011;7649;52.084;7.478;2022-08-11T14:01:56;4.55;;;2.22;;
15096;SDS011;7649;52.084;7.478;2022-08-11T14:04:47;2.40;;;2.17;;
15096;SDS011;7649;52.084;7.478;2022-08-11T14:07:19;5.25;;;2.30;;
15096;SDS011;7649;52.084;7.478;2022-08-11T14:09:55;6.30;;;2.30;;
15096;SDS011;7649;52.084;7.478;2022-08-11T14:12:25;4.70;;;2.30;;
15096;SDS011;7649;52.084;7.478;2022-08-11T14:15:13;2.80;;;2.25;;
15096;SDS011;7649;52.084;7.478;2022-08-11T14:17:45;2.63;;;2.42;;
15096;SDS011;7649;52.084;7.478;2022-08-11T14:20:16;2.65;;;1.98;;
15096;SDS011;7649;52.084;7.478;2022-08-11T14:23:05;3.78;;;2.00;;
15096;SDS011;7649;52.084;7.478;2022-08-11T14:25:34;2.45;;;2.15;;
15096;SDS011;7649;52.084;7.478;2022-08-11T14:28:27;2.53;;;2.33;;
15096;SDS011;7649;52.084;7.478;2022-08-11T14:31:07;2.53;;;2.20;;
15096;SDS011;7649;52.084;7.478;2022-08-11T14:33:36;3.50;;;1.98;;
15096;SDS011;7649;52.084;7.478;2022-08-11T14:36:25;2.25;;;2.13;;
15096;SDS011;7649;52.084;7.478;2022-08-11T14:38:54;2.58;;;1.90;;
15096;SDS011;7649;52.084;7.478;2022-08-11T14:41:24;3.05;;;2.38;;
15096;SDS011;7649;52.084;7.478;2022-08-11T14:44:30;2.95;;;2.40;;
15096;SDS011;7649;52.084;7.478;2022-08-11T14:47:16;3.97;;;2.13;;
15096;SDS011;7649;52.084;7.478;2022-08-11T14:49:50;3.05;;;2.20;;
15096;SDS011;7649;52.084;7.478;2022-08-11T14:52:37;2.85;;;2.40;;
15096;SDS011;7649;52.084;7.478;2022-08-11T14:55:06;5.18;;;2.42;;
15096;SDS011;7649;52.084;7.478;2022-08-11T14:57:54;2.88;;;2.50;;
15096;SDS011;7649;52.084;7.478;2022-08-11T15:00:23;4.97;;;2.55;;
15096;SDS011;7649;52.084;7.478;2022-08-11T15:02:52;5.85;;;2.40;;
15096;SDS011;7649;52.084;7.478;2022-08-11T15:05:44;5.22;;;2.55;;
15096;SDS011;7649;52.084;7.478;2022-08-11T15:08:24;3.45;;;2.30;;
15096;SDS011;7649;52.084;7.478;2022-08-11T15:11:06;2.92;;;2.25;;
15096;SDS011;7649;52.084;7.478;2022-08-11T15:13:59;4.95;;;2.80;;
15096;SDS011;7649;52.084;7.478;2022-08-11T15:16:28;5.20;;;2.30;;
15096;SDS011;7649;52.084;7.478;2022-08-11T15:19:26;2.58;;;2.17;;
15096;SDS011;7649;52.084;7.478;2022-08-11T15:22:06;3.72;;;2.28;;
15096;SDS011;7649;52.084;7.478;2022-08-11T15:24:53;2.58;;;2.38;;
15096;SDS011;7649;52.084;7.478;2022-08-11T15:27:22;4.47;;;2.17;;
15096;SDS011;7649;52.084;7.478;2022-08-11T15:30:10;2.53;;;2.30;;
15096;SDS011;7649;52.084;7.478;2022-08-11T15:32:58;2.97;;;2.50;;
15096;SDS011;7649;52.084;7.478;2022-08-11T15:35:46;2.55;;;2.35;;
15096;SDS011;7649;52.084;7.478;2022-08-11T15:38:32;2.35;;;2.13;;
15096;SDS011;7649;52.084;7.478;2022-08-11T15:41:02;4.03;;;2.40;;
15096;SDS011;7649;52.084;7.478;2022-08-11T15:43:50;2.22;;;2.13;;
15096;SDS011;7649;52.084;7.478;2022-08-11T15:46:40;2.63;;;2.30;;
15096;SDS011;7649;52.084;7.478;2022-08-11T15:49:10;6.28;;;2.58;;
15096;SDS011;7649;52.084;7.478;2022-08-11T15:51:59;6.10;;;2.80;;
15096;SDS011;7649;52.084;7.478;2022-08-11T15:54:30;2.83;;;2.22;;
15096;SDS011;7649;52.084;7.478;2022-08-11T15:56:59;5.03;;;2.60;;
15096;SDS011;7649;52.084;7.478;2022-08-11T15:59:30;4.60;;;2.70;;
15096;SDS011;7649;52.084;7.478;2022-08-11T16:02:18;2.58;;;1.83;;
15096;SDS011;7649;52.084;7.478;2022-08-11T16:05:09;5.45;;;2.35;;
15096;SDS011;7649;52.084;7.478;2022-08-11T16:07:59;2.47;;;2.28;;
15096;SDS011;7649;52.084;7.478;2022-08-11T16:10:28;2.95;;;2.42;;
15096;SDS011;7649;52.084;7.478;2022-08-11T16:12:59;3.00;;;2.75;;
15096;SDS011;7649;52.084;7.478;2022-08-11T16:15:44;4.53;;;3.15;;
15096;SDS011;7649;52.084;7.478;2022-08-11T16:18:35;5.30;;;2.70;;
15096;SDS011;7649;52.084;7.478;2022-08-11T16:21:09;4.38;;;2.65;;
15096;SDS011;7649;52.084;7.478;2022-08-11T16:23:58;4.03;;;2.50;;
15096;SDS011;7649;52.084;7.478;2022-08-11T16:26:28;4.28;;;2.30;;
15096;SDS011;7649;52.084;7.478;2022-08-11T16:29:16;2.40;;;2.17;;
15096;SDS011;7649;52.084;7.478;2022-08-11T16:31:49;3.25;;;2.15;;
15096;SDS011;7649;52.084;7.478;2022-08-11T16:34:33;2.67;;;2.28;;
15096;SDS011;7649;52.084;7.478;2022-08-11T16:37:20;5.55;;;2.10;;
15096;SDS011;7649;52.084;7.478;2022-08-11T16:40:07;2.58;;;2.13;;
15096;SDS011;7649;52.084;7.478;2022-08-11T16:42:36;2.50;;;2.10;;
15096;SDS011;7649;52.084;7.478;2022-08-11T16:45:35;2.53;;;2.20;;
15096;SDS011;7649;52.084;7.478;2022-08-11T16:48:24;3.10;;;2.20;;
15096;SDS011;7649;52.084;7.478;2022-08-11T16:51:03;3.40;;;2.17;;
15096;SDS011;7649;52.084;7.478;2022-08-11T16:53:31;2.38;;;2.17;;
15096;SDS011;7649;52.084;7.478;2022-08-11T16:56:20;2.63;;;2.00;;
15096;SDS011;7649;52.084;7.478;2022-08-11T16:58:51;4.57;;;2.03;;
15096;SDS011;7649;52.084;7.478;2022-08-11T17:01:38;3.75;;;2.30;;
15096;SDS011;7649;52.084;7.478;2022-08-11T17:04:08;3.67;;;2.10;;
15096;SDS011;7649;52.084;7.478;2022-08-11T17:07:00;2.03;;;1.83;;